Time;durP1;ratioP1;P1;durP2;ratioP2;P2;SDS_P1;SDS_P2;PMS_P1;PMS_P2;Temp;Humidity;BMP_temperature;BMP_pressure;BME280_temperature;BME280_humidity;BME280_pressure;Samples;Min_cycle;Max_cycle;Signal;HPM_P1;HPM_P2
2022/08/17 00:00:43;;;;;;;8.30;2.72;;;;;;;15.11;100.00;98282.47;5026040;28;20048;-96
2022/08/17 00:03:17;;;;;;;7.97;2.85;;;;;;;14.95;100.00;98283.03;5037125;28;20041;-96
2022/08/17 00:05:48;;;;;;;8.68;2.97;;;;;;;15.30;100.00;98287.97;5019242;28;20490;-96
2022/08/17 00:08:16;;;;;;;9.90;2.92;;;;;;;15.38;100.00;98285.03;5024329;28;20200;-96
2022/08/17 00:10:43;;;;;;;6.97;2.55;;;;;;;15.15;100.00;98279.69;5011116;28;20029;-96
2022/08/17 00:13:29;;;;;;;8.68;2.75;;;;;;;15.29;100.00;98291.50;5015290;28;20103;-96
2022/08/17 00:15:58;;;;;;;26.02;3.83;;;;;;;15.01;100.00;98285.44;5024948;28;20687;-96
2022/08/17 00:18:25;;;;;;;37.00;4.60;;;;;;;15.12;100.00;98286.84;5028952;28;20050;-96
2022/08/17 00:20:54;;;;;;;16.65;3.22;;;;;;;15.14;100.00;98279.75;5018700;28;20026;-96
2022/08/17 00:23:20;;;;;;;16.20;2.97;;;;;;;15.02;100.00;98274.00;5013800;28;20026;-96
2022/08/17 00:25:46;;;;;;;11.57;3.08;;;;;;;15.22;100.00;98284.75;5013198;28;20478;-96
2022/08/17 00:28:14;;;;;;;90.72;6.15;;;;;;;14.60;100.00;98268.41;5009114;28;20764;-96
2022/08/17 00:33:20;;;;;;;52.30;5.13;;;;;;;14.72;100.00;98282.94;4421797;26;20331;-94
2022/08/17 00:35:49;;;;;;;22.17;3.88;;;;;;;15.02;100.00;98292.41;5098348;28;20040;-95
2022/08/17 00:38:23;;;;;;;71.90;6.93;;;;;;;14.60;100.00;98286.78;5077615;28;20083;-94
2022/08/17 00:40:55;;;;;;;143.38;11.02;;;;;;;14.91;100.00;98285.81;5081177;28;20024;-94
2022/08/17 00:43:30;;;;;;;35.45;5.50;;;;;;;14.97;100.00;98283.81;5089214;28;20031;-94
2022/08/17 00:46:00;;;;;;;49.40;5.45;;;;;;;14.55;100.00;98279.06;5078251;28;20044;-94
2022/08/17 00:48:27;;;;;;;28.75;4.50;;;;;;;15.24;100.00;98293.41;5065110;28;20025;-92
2022/08/17 00:51:17;;;;;;;42.22;5.43;;;;;;;15.21;100.00;98291.75;5090362;28;20089;-94
2022/08/17 00:53:49;;;;;;;117.40;9.50;;;;;;;15.16;100.00;98285.81;5085287;28;20032;-93
2022/08/17 00:56:21;;;;;;;36.35;4.22;;;;;;;15.16;100.00;98291.91;5067379;28;20239;-93
2022/08/17 00:58:50;;;;;;;34.03;3.60;;;;;;;15.02;100.00;98287.16;5091679;28;20028;-95
2022/08/17 01:01:21;;;;;;;71.05;4.93;;;;;;;14.93;100.00;98279.56;5085275;28;20037;-95
2022/08/17 01:03:47;;;;;;;86.32;6.10;;;;;;;14.85;100.00;98286.88;5072432;28;20042;-96
2022/08/17 01:06:16;;;;;;;60.92;5.45;;;;;;;14.70;100.00;98284.75;5082850;28;20044;-94
2022/08/17 01:08:42;;;;;;;55.45;5.43;;;;;;;14.93;100.00;98287.44;5070016;28;20059;-96
2022/08/17 01:11:08;;;;;;;39.97;4.30;;;;;;;14.90;100.00;98286.72;5085461;28;20134;-96
2022/08/17 01:13:42;;;;;;;85.82;6.75;;;;;;;14.64;100.00;98291.06;5071894;28;20093;-95
2022/08/17 01:16:27;;;;;;;;;;;;;;;14.70;100.00;98290.88;5068643;28;20054;-95
2022/08/17 01:19:00;;;;;;;10.98;3.20;;;;;;;14.65;100.00;98293.63;5067234;28;19919;-96
2022/08/17 01:22:01;;;;;;;34.55;4.55;;;;;;;14.91;100.00;98302.41;5071735;28;20055;-95
2022/08/17 01:24:26;;;;;;;12.50;2.95;;;;;;;15.05;100.00;98301.94;5047848;28;20063;-95
2022/08/17 01:26:52;;;;;;;14.90;3.20;;;;;;;14.72;100.00;98290.81;5077505;28;20067;-93
2022/08/17 01:29:19;;;;;;;17.77;3.35;;;;;;;14.66;100.00;98294.50;5073673;28;20403;-96
2022/08/17 01:31:53;;;;;;;55.00;5.25;;;;;;;14.67;100.00;98288.38;5087801;28;20028;-96
2022/08/17 01:34:20;;;;;;;24.38;3.50;;;;;;;14.72;100.00;98296.91;5070515;28;20043;-95
2022/08/17 01:36:50;;;;;;;18.13;3.50;;;;;;;14.68;100.00;98290.94;5069465;28;20028;-96
2022/08/17 01:39:22;;;;;;;15.95;3.25;;;;;;;14.80;100.00;98292.28;5067466;28;20062;-96
2022/08/17 01:41:51;;;;;;;11.43;3.05;;;;;;;14.80;100.00;98292.28;5088319;28;20488;-96
2022/08/17 01:44:17;;;;;;;14.00;3.53;;;;;;;14.73;100.00;98292.53;5059718;28;20063;-95
2022/08/17 01:46:53;;;;;;;13.82;3.20;;;;;;;14.71;100.00;98299.59;5062142;28;20118;-96
2022/08/17 01:49:18;;;;;;;9.25;2.88;;;;;;;14.65;100.00;98301.50;5092209;28;20120;-95
2022/08/17 01:51:44;;;;;;;11.25;2.95;;;;;;;14.70;100.00;98292.63;5069486;28;20725;-95
2022/08/17 01:54:16;;;;;;;11.18;2.95;;;;;;;14.67;100.00;98302.31;5070635;28;20024;-95
2022/08/17 01:56:48;;;;;;;10.85;3.08;;;;;;;14.87;100.00;98307.84;5068002;28;20123;-96
2022/08/17 01:59:17;;;;;;;10.85;2.92;;;;;;;15.16;100.00;98318.19;5081245;28;20488;-96
2022/08/17 02:01:43;;;;;;;15.23;3.45;;;;;;;15.04;100.00;98315.13;5061826;28;20448;-94
2022/08/17 02:04:13;;;;;;;12.13;3.20;;;;;;;14.91;100.00;98317.31;5062703;28;20050;-96
2022/08/17 02:06:42;;;;;;;10.63;2.70;;;;;;;14.67;100.00;98312.81;5063521;28;20623;-96
2022/08/17 02:09:09;;;;;;;11.23;3.50;;;;;;;14.72;100.00;98322.31;5067805;28;20462;-96
2022/08/17 02:11:39;;;;;;;14.05;3.83;;;;;;;14.74;100.00;98320.50;5081014;28;20044;-95
2022/08/17 02:14:09;;;;;;;15.65;3.63;;;;;;;14.61;100.00;98318.25;5067602;28;20170;-95
2022/08/17 02:16:39;;;;;;;12.15;3.40;;;;;;;14.92;100.00;98317.28;5072682;28;20032;-96
2022/08/17 02:19:11;;;;;;;14.75;3.53;;;;;;;14.66;100.00;98324.22;5080913;28;20076;-95
2022/08/17 02:21:38;;;;;;;12.55;3.80;;;;;;;14.76;100.00;98337.06;5089210;28;20032;-95
2022/08/17 02:24:30;;;;;;;11.90;3.05;;;;;;;14.94;100.00;98325.09;5078550;28;20034;-95
2022/08/17 02:26:56;;;;;;;10.45;3.40;;;;;;;14.91;100.00;98335.69;5066430;28;20035;-96
2022/08/17 02:29:22;;;;;;;10.80;2.80;;;;;;;14.83;100.00;98330.69;5078966;28;20389;-96
2022/08/17 02:31:48;;;;;;;13.80;3.58;;;;;;;14.64;100.00;98327.81;5086453;28;20070;-95
2022/08/17 02:34:14;;;;;;;12.10;3.45;;;;;;;14.83;100.00;98346.44;5093825;28;20486;-95
2022/08/17 02:36:43;;;;;;;14.00;3.50;;;;;;;14.77;100.00;98344.03;5074327;28;20081;-96
2022/08/17 02:39:10;;;;;;;10.75;3.10;;;;;;;14.64;100.00;98344.44;5085317;28;20036;-94
2022/08/17 02:41:38;;;;;;;11.18;2.92;;;;;;;14.59;100.00;98342.84;5063366;28;20035;-95
2022/08/17 02:44:06;;;;;;;13.85;3.40;;;;;;;14.74;100.00;98349.38;5071301;28;20391;-94
2022/08/17 02:46:32;;;;;;;13.68;3.53;;;;;;;14.49;100.00;98344.88;5067927;28;20032;-95
2022/08/17 02:49:00;;;;;;;13.10;3.78;;;;;;;14.34;100.00;98343.59;5065030;28;20039;-96
2022/08/17 02:51:29;;;;;;;12.70;3.17;;;;;;;14.50;100.00;98352.72;5070037;28;20031;-96
2022/08/17 02:53:55;;;;;;;11.90;3.65;;;;;;;14.46;100.00;98347.59;5087753;28;20032;-95
2022/08/17 02:56:20;;;;;;;15.27;3.42;;;;;;;14.46;100.00;98344.97;5067297;28;20051;-96
2022/08/17 02:58:46;;;;;;;11.23;3.15;;;;;;;14.46;100.00;98337.97;5062233;28;20067;-96
2022/08/17 03:01:19;;;;;;;12.73;3.60;;;;;;;14.67;100.00;98331.19;5069690;28;20119;-96
2022/08/17 03:03:44;;;;;;;11.13;3.50;;;;;;;14.80;100.00;98339.53;5071465;28;20024;-96
2022/08/17 03:06:10;;;;;;;8.27;2.95;;;;;;;14.68;100.00;98343.41;5075860;28;20055;-96
2022/08/17 03:08:37;;;;;;;13.98;3.15;;;;;;;14.86;100.00;98327.97;5074150;28;20024;-96
2022/08/17 03:11:03;;;;;;;14.23;3.75;;;;;;;14.74;100.00;98334.50;5070857;28;20085;-96
2022/08/17 03:13:29;;;;;;;12.50;3.50;;;;;;;14.49;100.00;98330.00;5079404;28;20456;-94
2022/08/17 03:15:55;;;;;;;14.57;3.42;;;;;;;14.55;100.00;98344.69;5070617;28;20036;-95
2022/08/17 03:18:22;;;;;;;16.25;3.60;;;;;;;14.45;100.00;98348.50;5070770;28;20043;-95
2022/08/17 03:20:48;;;;;;;13.65;3.38;;;;;;;14.47;100.00;98339.69;5056274;28;20071;-94
2022/08/17 03:23:14;;;;;;;12.07;3.95;;;;;;;14.60;100.00;98342.78;5061945;28;20035;-95
2022/08/17 03:25:42;;;;;;;15.30;4.13;;;;;;;14.31;100.00;98339.31;5086496;28;20036;-92
2022/08/17 03:28:08;;;;;;;12.25;3.72;;;;;;;14.45;100.00;98357.22;5060223;28;20087;-96
2022/08/17 03:30:38;;;;;;;9.90;3.70;;;;;;;14.43;100.00;98358.19;5084317;28;20043;-96
2022/08/17 03:33:11;;;;;;;11.50;3.83;;;;;;;14.31;100.00;98352.41;5070002;28;20051;-95
2022/08/17 03:35:39;;;;;;;15.32;4.13;;;;;;;14.43;100.00;98351.19;5074850;28;20407;-94
2022/08/17 03:38:09;;;;;;;12.95;4.38;;;;;;;14.47;100.00;98362.44;5064993;28;20032;-96
2022/08/17 03:40:38;;;;;;;12.13;3.85;;;;;;;14.43;100.00;98351.19;5071094;28;20054;-96
2022/08/17 03:43:10;;;;;;;11.13;3.58;;;;;;;14.75;100.00;98357.22;5074581;28;20858;-96
2022/08/17 03:57:09;;;;;;;11.40;3.20;;;;;;;14.55;100.00;98368.28;5089119;28;20043;-96
2022/08/17 03:59:42;;;;;;;16.50;3.92;;;;;;;14.72;100.00;98365.16;5074650;28;20036;-96
2022/08/17 04:02:11;;;;;;;12.27;4.35;;;;;;;14.89;100.00;98358.50;5068610;28;20490;-95
2022/08/17 04:04:37;;;;;;;10.90;3.78;;;;;;;14.76;100.00;98371.19;5079391;28;20039;-96
2022/08/17 04:07:05;;;;;;;12.43;4.57;;;;;;;14.65;100.00;98367.13;5071790;28;20032;-96
2022/08/17 04:09:30;;;;;;;17.50;4.53;;;;;;;14.63;100.00;98381.22;5089320;28;20058;-96
2022/08/17 04:11:59;;;;;;;14.55;4.85;;;;;;;14.48;100.00;98379.91;5072801;28;20551;-95
2022/08/17 04:14:32;;;;;;;13.55;4.80;;;;;;;14.80;100.00;98381.53;5091374;28;20032;-95
2022/08/17 04:17:01;;;;;;;13.93;5.32;;;;;;;14.60;100.00;98381.25;5074817;28;20034;-95
2022/08/17 04:19:27;;;;;;;11.23;4.72;;;;;;;14.49;100.00;98384.25;5097759;28;20046;-95
2022/08/17 04:21:53;;;;;;;13.43;4.13;;;;;;;14.52;100.00;98392.03;5072506;28;20040;-96
2022/08/17 04:24:22;;;;;;;17.52;5.38;;;;;;;14.70;100.00;98393.25;5067848;28;20024;-95
2022/08/17 04:26:47;;;;;;;13.20;4.85;;;;;;;14.85;100.00;98391.91;5066770;28;20035;-96
2022/08/17 04:29:13;;;;;;;13.80;4.72;;;;;;;14.75;100.00;98385.22;5091092;28;20028;-96
2022/08/17 04:31:39;;;;;;;12.15;5.43;;;;;;;14.77;100.00;98397.38;5073583;28;20040;-96
2022/08/17 04:34:05;;;;;;;11.98;4.90;;;;;;;14.57;100.00;98387.50;5094807;28;20044;-96
2022/08/17 04:36:34;;;;;;;14.27;5.38;;;;;;;14.80;100.00;98394.66;5093024;28;20036;-94
2022/08/17 04:39:00;;;;;;;15.70;5.78;;;;;;;14.83;100.00;98391.91;5089976;28;20537;-96
2022/08/17 04:44:11;;;;;;;16.38;5.40;;;;;;;14.75;100.00;98400.97;5087008;28;20465;-95
2022/08/17 04:46:37;;;;;;;15.02;4.93;;;;;;;14.62;100.00;98408.34;5085861;28;20032;-95
2022/08/17 04:49:09;;;;;;;15.23;5.28;;;;;;;14.68;100.00;98411.66;5087998;28;20032;-96
2022/08/17 04:51:44;;;;;;;17.00;5.60;;;;;;;14.77;100.00;98417.53;5074046;28;20035;-96
2022/08/17 04:54:23;;;;;;;16.67;5.35;;;;;;;14.67;100.00;98415.19;5071911;28;20047;-96
2022/08/17 04:56:49;;;;;;;11.70;5.05;;;;;;;14.74;100.00;98412.34;5073998;28;20032;-95
2022/08/17 04:59:18;;;;;;;16.80;5.05;;;;;;;14.56;100.00;98419.88;5075177;28;20062;-94
2022/08/17 05:01:47;;;;;;;14.88;5.00;;;;;;;14.33;100.00;98423.19;5069633;28;20028;-93
2022/08/17 05:04:17;;;;;;;13.02;4.32;;;;;;;14.26;100.00;98429.53;5072110;28;20027;-95
2022/08/17 05:06:48;;;;;;;14.35;3.72;;;;;;;14.19;100.00;98433.25;5086665;28;20104;-93
2022/08/17 05:09:16;;;;;;;11.15;2.85;;;;;;;14.00;100.00;98434.63;5071524;28;20032;-96
2022/08/17 05:11:43;;;;;;;16.13;3.45;;;;;;;14.36;100.00;98451.94;5086835;28;20039;-95
2022/08/17 05:14:09;;;;;;;14.23;2.95;;;;;;;14.26;100.00;98440.88;5063412;28;20115;-96
2022/08/17 05:16:35;;;;;;;12.43;2.90;;;;;;;14.06;100.00;98448.47;5071675;28;20096;-95
2022/08/17 05:19:04;;;;;;;11.10;3.13;;;;;;;14.00;100.00;98450.34;5072290;28;21859;-93
2022/08/17 05:21:33;;;;;;;13.05;2.80;;;;;;;14.09;100.00;98448.38;5068753;28;20055;-96
2022/08/17 05:23:59;;;;;;;11.38;3.22;;;;;;;14.13;100.00;98453.47;5074268;28;20069;-93
2022/08/17 05:26:27;;;;;;;11.70;3.20;;;;;;;13.85;100.00;98458.66;5079693;28;20132;-96
2022/08/17 05:28:54;;;;;;;11.38;3.03;;;;;;;13.97;100.00;98460.06;5071220;28;20630;-95
2022/08/17 05:31:23;;;;;;;13.30;2.83;;;;;;;14.02;100.00;98457.31;5070743;28;20059;-94
2022/08/17 05:33:50;;;;;;;13.20;2.60;;;;;;;14.02;100.00;98458.19;5080940;28;20046;-93
2022/08/17 05:36:21;;;;;;;11.93;2.40;;;;;;;13.65;100.00;98460.03;5092198;28;20503;-96
2022/08/17 05:38:52;;;;;;;8.40;2.72;;;;;;;13.81;100.00;98457.00;5079958;28;20027;-96
2022/08/17 05:41:17;;;;;;;13.32;2.70;;;;;;;14.04;100.00;98456.34;5063686;28;20032;-96
2022/08/17 05:43:47;;;;;;;7.75;2.35;;;;;;;13.97;100.00;98446.94;5067881;28;20046;-96
2022/08/17 05:46:24;;;;;;;12.38;2.70;;;;;;;13.49;100.00;98451.69;5088690;28;20048;-95
2022/08/17 05:49:06;;;;;;;11.68;3.15;;;;;;;13.42;100.00;98452.75;5066740;28;20557;-96
2022/08/17 05:52:03;;;;;;;11.05;2.95;;;;;;;13.35;100.00;98452.91;5089421;28;20090;-95
2022/08/17 05:54:46;;;;;;;13.38;3.17;;;;;;;13.34;100.00;98459.91;5084170;28;20093;-94
2022/08/17 05:57:33;;;;;;;12.27;3.25;;;;;;;13.22;100.00;98449.75;5072198;28;20036;-94
2022/08/17 06:00:02;;;;;;;13.18;2.63;;;;;;;13.39;100.00;98455.47;5090449;28;20499;-94
2022/08/17 06:02:46;;;;;;;12.55;3.28;;;;;;;13.16;100.00;98458.63;5085784;28;20039;-95
2022/08/17 06:05:42;;;;;;;11.35;3.50;;;;;;;13.42;100.00;98465.88;5090552;28;20024;-96
2022/08/17 06:08:10;;;;;;;12.70;3.72;;;;;;;13.30;100.00;98474.88;5073981;28;20165;-96
2022/08/17 06:10:57;;;;;;;17.30;4.05;;;;;;;13.39;100.00;98488.63;5075536;28;20399;-96
2022/08/17 06:13:54;;;;;;;13.02;4.25;;;;;;;13.57;100.00;98476.84;5074886;28;20084;-96
2022/08/17 06:16:26;;;;;;;13.80;4.55;;;;;;;13.51;100.00;98479.63;5074973;28;20044;-96
2022/08/17 06:19:00;;;;;;;15.17;3.97;;;;;;;13.31;100.00;98481.81;5075281;28;20031;-96
2022/08/17 06:21:29;;;;;;;12.85;4.10;;;;;;;13.09;100.00;98471.00;5071715;28;20023;-95
2022/08/17 06:24:04;;;;;;;14.52;3.75;;;;;;;13.26;100.00;98481.09;5069621;28;20542;-96
2022/08/17 06:26:38;;;;;;;16.48;3.65;;;;;;;13.17;100.00;98481.28;5087087;28;20050;-96
2022/08/17 06:29:34;;;;;;;13.77;4.10;;;;;;;13.22;100.00;98478.56;5087358;28;20031;-94
2022/08/17 06:32:01;;;;;;;19.65;3.80;;;;;;;13.62;100.00;98478.44;5064892;28;20534;-95
2022/08/17 06:34:28;;;;;;;16.15;3.70;;;;;;;13.72;100.00;98483.44;5071613;28;20959;-96
2022/08/17 06:37:14;;;;;;;17.98;3.95;;;;;;;13.89;100.00;98468.16;5069983;28;20032;-95
2022/08/17 06:40:07;;;;;;;18.20;4.55;;;;;;;13.58;100.00;98463.69;5056490;28;20089;-96
2022/08/17 06:42:53;;;;;;;10.63;3.67;;;;;;;13.62;100.00;98456.63;5070177;28;20145;-96
2022/08/17 06:45:26;;;;;;;16.63;3.47;;;;;;;13.73;100.00;98456.34;5069761;28;20037;-94
2022/08/17 06:48:08;;;;;;;14.27;3.25;;;;;;;13.50;100.00;98468.31;5074226;28;20028;-95
2022/08/17 06:50:39;;;;;;;13.25;3.72;;;;;;;13.71;100.00;98484.34;5073070;28;20040;-95
2022/08/17 06:53:25;;;;;;;14.07;3.40;;;;;;;13.23;100.00;98485.50;5095205;28;20127;-93
2022/08/17 06:56:25;;;;;;;17.85;4.63;;;;;;;13.10;100.00;98484.97;5076007;28;20073;-94
2022/08/17 06:58:57;;;;;;;10.77;3.35;;;;;;;13.06;100.00;98488.53;5081963;28;20155;-96
2022/08/17 07:01:29;;;;;;;16.20;4.00;;;;;;;13.27;100.00;98490.63;5072906;28;20035;-96
2022/08/17 07:04:25;;;;;;;13.85;3.97;;;;;;;13.04;100.00;98500.78;5096993;28;20059;-94
2022/08/17 07:06:57;;;;;;;11.48;3.72;;;;;;;13.24;100.00;98493.34;5077611;28;20044;-96
2022/08/17 07:09:37;;;;;;;13.68;4.05;;;;;;;13.21;100.00;98503.00;5071861;28;20070;-96
2022/08/17 07:12:15;;;;;;;14.95;3.97;;;;;;;13.36;100.00;98507.94;5071220;28;20423;-96
2022/08/17 07:15:11;;;;;;;16.13;3.97;;;;;;;13.27;100.00;98501.09;5066497;28;20032;-95
2022/08/17 07:17:39;;;;;;;18.95;4.03;;;;;;;13.35;100.00;98505.28;5069550;28;20115;-95
2022/08/17 07:20:16;;;;;;;19.45;4.07;;;;;;;13.32;100.00;98501.03;5070076;28;20121;-95
2022/08/17 07:23:03;;;;;;;16.73;4.20;;;;;;;13.43;100.00;98516.47;5073844;28;20038;-94
2022/08/17 07:25:29;;;;;;;15.52;3.90;;;;;;;13.05;100.00;98507.75;5070555;28;20335;-94
2022/08/17 07:27:59;;;;;;;15.80;4.97;;;;;;;12.93;100.00;98521.97;5070657;28;20031;-96
2022/08/17 07:30:29;;;;;;;11.88;3.70;;;;;;;12.90;100.00;98536.00;5092808;28;20024;-96
2022/08/17 07:33:10;;;;;;;16.02;3.55;;;;;;;12.92;100.00;98535.97;5075997;28;20048;-96
2022/08/17 07:35:41;;;;;;;16.98;4.03;;;;;;;13.27;100.00;98537.78;5056968;28;20133;-94
2022/08/17 07:38:13;;;;;;;18.23;4.03;;;;;;;13.46;100.00;98542.63;5071665;28;20024;-96
2022/08/17 07:40:44;;;;;;;13.02;3.53;;;;;;;14.00;100.00;98539.50;5070855;28;20047;-96
2022/08/17 07:43:25;;;;;;;13.02;3.10;;;;;;;13.60;100.00;98539.66;5068831;28;20121;-95
2022/08/17 07:48:48;;;;;;;11.70;2.95;;;;;;;13.64;100.00;98523.81;5085466;28;20108;-95
2022/08/17 07:51:35;;;;;;;10.55;2.83;;;;;;;13.40;100.00;98527.91;5083858;28;20028;-95
2022/08/17 07:54:21;;;;;;;13.48;3.10;;;;;;;13.49;100.00;98524.22;5071440;28;20040;-92
2022/08/17 07:57:23;;;;;;;13.07;3.17;;;;;;;13.61;100.00;98528.25;5075541;28;20177;-96
2022/08/17 08:00:01;;;;;;;12.68;2.75;;;;;;;13.60;100.00;98534.44;5059924;28;20027;-95
2022/08/17 08:02:40;;;;;;;13.25;2.92;;;;;;;13.38;100.00;98534.94;5089431;28;20028;-93
2022/08/17 08:05:28;;;;;;;12.55;3.00;;;;;;;13.52;100.00;98531.97;5072018;28;20032;-96
2022/08/17 08:08:02;;;;;;;11.23;3.20;;;;;;;13.42;100.00;98541.81;5061552;28;20032;-93
2022/08/17 08:10:40;;;;;;;15.60;2.50;;;;;;;13.62;100.00;98550.97;5065901;28;20115;-93
2022/08/17 08:13:21;;;;;;;12.60;2.90;;;;;;;13.49;100.00;98537.31;5062055;28;20043;-96
2022/08/17 08:15:49;;;;;;;13.05;2.70;;;;;;;13.47;100.00;98539.09;5066779;28;20031;-96
2022/08/17 08:18:24;;;;;;;10.63;2.88;;;;;;;13.43;100.00;98538.31;5064185;28;20031;-96
2022/08/17 08:20:54;;;;;;;12.75;2.60;;;;;;;13.52;100.00;98539.00;5063469;28;20031;-94
2022/08/17 08:23:36;;;;;;;17.27;3.25;;;;;;;13.65;100.00;98525.56;5070376;28;20055;-93
2022/08/17 08:26:43;;;;;;;13.93;2.90;;;;;;;13.89;100.00;98540.66;5086399;28;20024;-95
2022/08/17 08:29:36;;;;;;;15.35;2.83;;;;;;;13.53;100.00;98543.31;5069810;28;20877;-93
2022/08/17 08:32:38;;;;;;;9.52;2.42;;;;;;;13.62;100.00;98541.31;5070979;28;20055;-95
2022/08/17 08:35:21;;;;;;;13.48;3.75;;;;;;;13.68;100.00;98549.94;5072043;28;20039;-92
2022/08/17 08:38:22;;;;;;;13.63;2.38;;;;;;;13.78;100.00;98548.81;5068352;28;20679;-96
2022/08/17 08:41:23;;;;;;;9.52;2.22;;;;;;;13.57;100.00;98531.84;5071947;28;20047;-96
2022/08/17 08:44:19;;;;;;;12.30;2.80;;;;;;;14.65;100.00;98532.47;5083683;28;20032;-94
2022/08/17 08:47:07;;;;;;;13.90;3.13;;;;;;;13.96;100.00;98516.88;5070470;28;20028;-95
2022/08/17 08:49:52;;;;;;;12.32;2.95;;;;;;;13.85;100.00;98524.19;5075682;28;20028;-95
2022/08/17 08:52:44;;;;;;;17.70;3.17;;;;;;;13.60;100.00;98530.03;5086750;28;20049;-94
2022/08/17 08:55:13;;;;;;;12.10;2.50;;;;;;;14.02;100.00;98534.22;5084571;28;20032;-96
2022/08/17 08:57:52;;;;;;;14.88;2.80;;;;;;;14.04;100.00;98528.91;5067576;28;20032;-93
2022/08/17 09:00:24;;;;;;;12.30;2.78;;;;;;;13.69;100.00;98518.44;5081469;28;20024;-93
2022/08/17 09:03:24;;;;;;;11.52;2.60;;;;;;;14.09;100.00;98534.91;5066805;28;20474;-93
2022/08/17 09:06:23;;;;;;;11.40;2.17;;;;;;;13.88;100.00;98534.56;5088201;28;20032;-92
2022/08/17 09:09:08;;;;;;;12.55;2.75;;;;;;;14.13;100.00;98541.78;5083742;28;20022;-96
2022/08/17 09:12:00;;;;;;;16.45;3.00;;;;;;;14.07;100.00;98536.69;5089064;28;20066;-96
2022/08/17 09:15:00;;;;;;;11.27;2.55;;;;;;;13.83;100.00;98525.97;5078482;28;20369;-95
2022/08/17 09:18:06;;;;;;;10.95;2.95;;;;;;;14.13;100.00;98526.06;5074070;28;20035;-96
2022/08/17 09:20:42;;;;;;;15.52;2.60;;;;;;;14.46;100.00;98531.25;5090208;28;20020;-96
2022/08/17 09:23:11;;;;;;;9.10;2.47;;;;;;;14.59;100.00;98524.75;5080337;28;20055;-95
2022/08/17 09:26:10;;;;;;;12.98;2.70;;;;;;;14.42;100.00;98524.38;5075012;28;20059;-96
2022/08/17 09:28:41;;;;;;;12.35;2.20;;;;;;;14.26;100.00;98519.56;5083454;28;20043;-95
2022/08/17 09:31:24;;;;;;;13.07;2.30;;;;;;;14.55;100.00;98525.75;5071922;28;20031;-96
2022/08/17 09:34:07;;;;;;;11.35;2.40;;;;;;;14.34;100.00;98520.22;5090620;28;20040;-96
2022/08/17 09:37:12;;;;;;;10.88;2.50;;;;;;;14.53;100.00;98517.06;5071106;28;20141;-94
2022/08/17 09:40:08;;;;;;;15.52;2.90;;;;;;;15.05;100.00;98519.06;5046721;28;20051;-96
2022/08/17 09:42:49;;;;;;;10.93;2.83;;;;;;;15.29;100.00;98506.91;5089198;28;20043;-94
2022/08/17 09:45:28;;;;;;;11.68;2.60;;;;;;;15.36;100.00;98511.94;5066327;28;20032;-95
2022/08/17 09:48:04;;;;;;;10.90;2.83;;;;;;;15.40;100.00;98498.69;5064053;28;20073;-95
2022/08/17 09:50:40;;;;;;;16.85;2.78;;;;;;;15.46;100.00;98494.09;5077188;28;20503;-92
2022/08/17 09:53:07;;;;;;;14.95;2.75;;;;;;;15.58;100.00;98497.22;5064257;28;20764;-95
2022/08/17 09:56:00;;;;;;;10.80;2.55;;;;;;;15.97;100.00;98497.63;5059670;28;20129;-94
2022/08/17 09:58:39;;;;;;;15.57;2.65;;;;;;;15.97;100.00;98494.16;5082997;28;20032;-95
2022/08/17 10:01:25;;;;;;;10.73;3.15;;;;;;;16.34;100.00;98488.44;5085790;28;20043;-92
2022/08/17 10:04:14;;;;;;;10.55;2.67;;;;;;;16.23;100.00;98480.06;5066984;28;20036;-95
2022/08/17 10:07:00;;;;;;;13.27;2.95;;;;;;;16.19;100.00;98481.09;5078149;28;20510;-93
2022/08/17 10:09:41;;;;;;;10.10;2.33;;;;;;;15.93;100.00;98471.50;5064236;28;20040;-95
2022/08/17 10:12:29;;;;;;;9.40;2.65;;;;;;;16.00;100.00;98484.38;5082044;28;20059;-91
2022/08/17 10:15:03;;;;;;;12.98;2.83;;;;;;;16.02;100.00;98481.72;5079280;28;20102;-96
2022/08/17 10:17:55;;;;;;;11.60;2.58;;;;;;;16.44;100.00;98478.41;5059132;28;20024;-94
2022/08/17 10:20:36;;;;;;;8.48;2.40;;;;;;;16.34;100.00;98482.31;5071120;28;20055;-93
2022/08/17 10:26:23;;;;;;;10.75;2.30;;;;;;;15.78;100.00;98486.00;5085160;28;20130;-95
2022/08/17 10:29:11;;;;;;;13.55;2.50;;;;;;;15.66;100.00;98482.91;5074994;28;20096;-95
2022/08/17 10:31:47;;;;;;;14.27;2.92;;;;;;;16.03;100.00;98486.03;5046199;28;20028;-92
2022/08/17 10:34:27;;;;;;;12.35;2.70;;;;;;;15.88;100.00;98484.84;5065648;28;20076;-95
2022/08/17 10:37:14;;;;;;;9.30;2.40;;;;;;;15.83;100.00;98487.59;5063445;28;20377;-95
2022/08/17 10:40:11;;;;;;;12.50;2.67;;;;;;;15.93;100.00;98488.13;5080372;28;20032;-96
2022/08/17 10:42:48;;;;;;;13.27;2.70;;;;;;;15.84;100.00;98483.22;5060350;28;20109;-92
2022/08/17 10:45:20;;;;;;;10.55;2.60;;;;;;;15.94;100.00;98479.34;5061820;28;20055;-91
2022/08/17 10:48:20;;;;;;;11.95;2.70;;;;;;;15.92;100.00;98486.44;5057019;28;20503;-92
2022/08/17 10:50:54;;;;;;;10.32;2.58;;;;;;;16.19;100.00;98492.47;5057570;28;20840;-92
2022/08/17 10:53:32;;;;;;;12.90;2.42;;;;;;;16.05;100.00;98484.22;5060712;28;20032;-91
2022/08/17 10:56:13;;;;;;;9.18;2.15;;;;;;;16.27;100.00;98478.16;5079375;28;20050;-90
2022/08/17 10:58:52;;;;;;;10.13;2.35;;;;;;;16.02;100.00;98484.34;5061516;28;20063;-91
2022/08/17 11:01:44;;;;;;;11.60;2.63;;;;;;;16.15;100.00;98476.88;5064234;28;20150;-90
2022/08/17 11:04:45;;;;;;;8.05;2.30;;;;;;;16.18;100.00;98482.00;5059464;28;20020;-90
2022/08/17 11:07:42;;;;;;;12.18;2.40;;;;;;;16.31;100.00;98479.78;5077742;28;20053;-90
2022/08/17 11:10:23;;;;;;;9.80;2.20;;;;;;;16.16;100.00;98486.47;5069591;28;20036;-90
2022/08/17 11:13:07;;;;;;;11.98;2.80;;;;;;;16.15;100.00;98490.03;5061712;28;20031;-91
2022/08/17 11:15:43;;;;;;;10.23;2.78;;;;;;;16.25;100.00;98491.38;5060395;28;20040;-93
2022/08/17 11:18:38;;;;;;;10.55;2.38;;;;;;;16.53;100.00;98493.00;5074928;28;20046;-92
2022/08/17 11:21:07;;;;;;;8.80;2.03;;;;;;;16.36;100.00;98497.13;5069244;28;20028;-91
2022/08/17 11:23:52;;;;;;;11.23;2.50;;;;;;;16.48;100.00;98498.44;5072193;28;20083;-91
2022/08/17 11:26:31;;;;;;;7.82;2.20;;;;;;;16.42;100.00;98496.03;5078131;28;20065;-90
2022/08/17 11:29:00;;;;;;;8.65;2.00;;;;;;;16.63;100.00;98501.41;5074258;28;20029;-90
2022/08/17 11:31:40;;;;;;;11.25;2.50;;;;;;;16.60;100.00;98498.91;5074968;28;20023;-91
2022/08/17 11:34:12;;;;;;;9.98;2.13;;;;;;;16.55;100.00;98493.81;5074889;28;20047;-90
2022/08/17 11:36:50;;;;;;;6.80;1.90;;;;;;;16.66;100.00;98494.25;5086198;28;20081;-91
2022/08/17 11:39:24;;;;;;;12.38;2.50;;;;;;;16.89;100.00;98498.66;5082744;28;20043;-90
2022/08/17 11:42:10;;;;;;;9.75;2.28;;;;;;;16.93;100.00;98494.13;5066012;28;20024;-91
2022/08/17 11:44:42;;;;;;;13.43;2.80;;;;;;;16.88;100.00;98488.16;5074768;28;20535;-90
2022/08/17 11:51:33;;;;;;;8.23;2.17;;;;;;;16.93;100.00;98504.69;5082944;28;20038;-90
2022/08/17 11:54:17;;;;;;;11.25;2.15;;;;;;;16.93;100.00;98502.03;5053991;28;20044;-90
2022/08/17 11:56:47;;;;;;;11.60;3.10;;;;;;;16.98;100.00;98502.72;5075185;28;20082;-90
2022/08/17 11:59:31;;;;;;;11.05;2.25;;;;;;;16.95;100.00;98492.31;5067423;28;20032;-92
2022/08/17 12:01:58;;;;;;;9.27;2.33;;;;;;;16.94;100.00;98493.22;5077801;28;20080;-91
2022/08/17 12:04:27;;;;;;;8.13;1.98;;;;;;;17.11;100.00;98491.72;5065854;28;20023;-91
2022/08/17 12:07:05;;;;;;;9.95;2.70;;;;;;;17.27;100.00;98490.19;5064585;28;20056;-91
2022/08/17 12:09:33;;;;;;;12.30;2.30;;;;;;;17.19;100.00;98487.00;5086423;28;20112;-91
2022/08/17 12:12:09;;;;;;;9.15;2.30;;;;;;;17.10;100.00;98487.34;5066491;28;20027;-90
2022/08/17 12:14:37;;;;;;;9.10;2.10;;;;;;;16.99;100.00;98479.88;5065329;28;20032;-91
2022/08/17 12:17:11;;;;;;;8.88;2.15;;;;;;;17.30;100.00;98481.25;5066082;28;20028;-91
2022/08/17 12:19:38;;;;;;;6.63;2.03;;;;;;;17.10;100.00;98479.44;5084631;28;20050;-91
2022/08/17 12:22:15;;;;;;;7.75;2.38;;;;;;;17.31;100.00;98475.06;5057994;28;20021;-90
2022/08/17 12:24:41;;;;;;;11.15;2.25;;;;;;;17.32;100.00;98476.81;5064035;28;20094;-92